Time;durP1;ratioP1;P1;durP2;ratioP2;P2;SDS_P1;SDS_P2;PMS_P1;PMS_P2;Temp;Humidity;BMP_temperature;BMP_pressure;BME280_temperature;BME280_humidity;BME280_pressure;Samples;Min_cycle;Max_cycle;Signal;HPM_P1;HPM_P2
2022/09/18 08:37:58;;;;;;;1.75;0.80;;;;;;;22.32;37.19;96802.84;5050512;28;20379;-35
2022/09/18 08:40:55;;;;;;;1.63;0.70;;;;;;;22.77;37.21;96798.25;5051002;28;20499;-35
2022/09/18 08:43:56;;;;;;;2.15;0.80;;;;;;;23.07;36.97;96803.38;5050985;28;20036;-35
2022/09/18 08:46:31;;;;;;;1.55;0.70;;;;;;;23.23;36.47;96803.41;5050715;28;20064;-36
2022/09/18 08:49:06;;;;;;;1.02;0.60;;;;;;;23.37;36.23;96803.66;5050525;28;20025;-35
2022/09/18 08:51:43;;;;;;;1.80;0.70;;;;;;;23.46;36.06;96806.94;5039719;28;20031;-36
2022/09/18 08:54:47;;;;;;;3.03;0.70;;;;;;;23.57;36.23;96808.97;5033153;28;20026;-35
2022/09/18 08:57:28;;;;;;;0.77;0.40;;;;;;;23.68;36.32;96813.75;5029579;28;20024;-35
2022/09/18 09:00:11;;;;;;;1.30;0.70;;;;;;;23.71;36.38;96816.25;5029233;28;20036;-35
2022/09/18 09:02:44;;;;;;;1.45;0.80;;;;;;;23.79;35.19;96816.50;5027647;28;20482;-36
2022/09/18 09:05:17;;;;;;;1.77;0.60;;;;;;;23.77;35.79;96817.00;5030286;28;20070;-36
2022/09/18 09:08:20;;;;;;;1.65;0.55;;;;;;;23.88;35.98;96816.22;5048668;28;20029;-36
2022/09/18 09:11:07;;;;;;;0.90;0.40;;;;;;;23.97;36.10;96822.28;5048617;28;20493;-36
2022/09/18 09:13:49;;;;;;;0.88;0.57;;;;;;;23.83;35.22;96812.22;5048999;28;20087;-36
2022/09/18 09:16:24;;;;;;;3.20;0.73;;;;;;;23.90;35.77;96817.25;5040205;28;20028;-35
2022/09/18 09:19:12;;;;;;;1.10;0.45;;;;;;;24.06;35.94;96817.72;5027491;28;20025;-35
2022/09/18 09:21:53;;;;;;;1.58;0.60;;;;;;;24.11;35.94;96814.91;5028430;28;20037;-36
2022/09/18 09:24:30;;;;;;;2.13;0.60;;;;;;;24.18;36.03;96813.66;5028752;28;20080;-35
2022/09/18 09:26:56;;;;;;;1.30;0.52;;;;;;;24.29;35.38;96819.19;5028733;28;20031;-37
2022/09/18 09:29:36;;;;;;;1.02;0.50;;;;;;;24.28;35.18;96817.69;5028825;28;20079;-36
2022/09/18 09:32:16;;;;;;;1.70;0.50;;;;;;;24.29;35.12;96819.19;5028480;28;20029;-35
2022/09/18 09:35:20;;;;;;;1.35;0.70;;;;;;;24.26;34.68;96815.41;5028589;28;20026;-36
2022/09/18 09:37:47;;;;;;;1.45;0.60;;;;;;;24.34;35.54;96812.91;5028660;28;20050;-36
2022/09/18 09:40:33;;;;;;;1.02;0.50;;;;;;;24.39;34.81;96808.59;5028648;28;20038;-36
2022/09/18 09:43:10;;;;;;;0.70;0.50;;;;;;;24.34;34.80;96807.34;5042652;28;20481;-37
2022/09/18 09:45:43;;;;;;;1.67;0.70;;;;;;;24.23;35.62;96805.34;5048232;28;20029;-36
2022/09/18 09:48:17;;;;;;;0.95;0.75;;;;;;;24.18;35.14;96805.34;5024156;28;20021;-36
2022/09/18 09:50:51;;;;;;;0.98;0.50;;;;;;;24.33;35.20;96805.84;5034903;28;20025;-36
2022/09/18 09:53:17;;;;;;;0.60;0.50;;;;;;;24.34;35.01;96815.66;5033730;28;20397;-36
2022/09/18 09:55:48;;;;;;;0.57;0.50;;;;;;;24.34;34.58;96810.13;5015983;28;20030;-36
2022/09/18 09:58:34;;;;;;;1.35;0.70;;;;;;;24.33;34.68;96809.38;5015177;28;20033;-39
2022/09/18 10:01:18;;;;;;;0.68;0.40;;;;;;;24.39;34.39;96803.78;5019476;28;20072;-36
2022/09/18 10:04:08;;;;;;;1.77;0.50;;;;;;;24.37;34.44;96802.78;5034689;28;20033;-37
2022/09/18 10:06:58;;;;;;;0.45;0.40;;;;;;;24.37;33.99;96800.78;5021690;28;20078;-35
2022/09/18 10:09:23;;;;;;;0.52;0.50;;;;;;;24.45;34.23;96807.31;5014766;28;20034;-36
2022/09/18 10:11:59;;;;;;;1.77;0.60;;;;;;;24.56;34.51;96803.72;5015092;28;20076;-35
2022/09/18 10:14:27;;;;;;;1.17;0.50;;;;;;;24.47;34.04;96806.81;5015002;28;20021;-36
2022/09/18 10:16:55;;;;;;;3.25;0.50;;;;;;;24.46;34.31;96810.84;5014898;28;20048;-37
2022/09/18 10:19:32;;;;;;;0.50;0.40;;;;;;;24.56;34.10;96801.72;5013320;28;20029;-37
2022/09/18 10:21:57;;;;;;;0.75;0.55;;;;;;;24.57;34.53;96806.00;5014477;28;20026;-36
2022/09/18 10:24:37;;;;;;;0.60;0.50;;;;;;;24.66;33.28;96797.38;5014572;28;20030;-36
2022/09/18 10:27:12;;;;;;;1.17;0.50;;;;;;;24.59;33.99;96805.50;5014327;28;20026;-37
2022/09/18 10:29:39;;;;;;;0.60;0.40;;;;;;;24.29;33.75;96808.13;5014642;28;20026;-36
2022/09/18 10:32:05;;;;;;;1.70;0.57;;;;;;;24.61;33.75;96805.72;5014656;28;20084;-36
2022/09/18 10:34:47;;;;;;;0.63;0.50;;;;;;;24.72;34.17;96802.16;5014746;28;20432;-36
2022/09/18 10:37:35;;;;;;;1.25;0.50;;;;;;;24.36;33.40;96807.56;5014360;28;20522;-35
2022/09/18 10:40:01;;;;;;;1.40;0.47;;;;;;;24.45;34.34;96807.31;5014325;28;20388;-36
2022/09/18 10:42:36;;;;;;;1.27;0.50;;;;;;;24.48;33.58;96806.28;5014546;28;20433;-38
2022/09/18 10:45:05;;;;;;;1.17;0.60;;;;;;;24.21;33.74;96801.56;5014214;28;20026;-36
2022/09/18 10:47:35;;;;;;;0.55;0.38;;;;;;;24.46;33.24;96800.50;5014260;28;20050;-36
2022/09/18 10:50:01;;;;;;;1.17;0.40;;;;;;;24.56;33.83;96800.97;5013956;28;20109;-35
2022/09/18 10:52:42;;;;;;;0.47;0.45;;;;;;;24.80;33.08;96803.13;5014146;28;20104;-36
2022/09/18 10:55:11;;;;;;;3.28;0.50;;;;;;;24.61;31.35;96794.63;5026173;28;20092;-36
2022/09/18 10:57:39;;;;;;;0.95;0.50;;;;;;;24.50;32.76;96805.75;5033324;28;20029;-36
2022/09/18 11:00:11;;;;;;;1.77;0.47;;;;;;;24.68;31.99;96797.63;5034001;28;20030;-36
2022/09/18 11:02:56;;;;;;;0.85;0.47;;;;;;;24.18;32.21;96797.03;5034686;28;20366;-36
2022/09/18 11:05:34;;;;;;;0.40;0.40;;;;;;;24.60;33.45;96804.97;5034906;28;20095;-36
2022/09/18 11:08:11;;;;;;;1.05;0.47;;;;;;;24.34;30.33;96799.03;5034926;28;20021;-36
2022/09/18 11:10:37;;;;;;;0.77;0.50;;;;;;;24.52;33.38;96804.00;5034914;28;20458;-36
2022/09/18 11:13:03;;;;;;;1.80;0.50;;;;;;;24.52;31.70;96804.00;5034568;28;20105;-36
2022/09/18 11:15:34;;;;;;;0.68;0.40;;;;;;;24.76;33.54;96805.41;5034668;28;20370;-36
2022/09/18 11:18:04;;;;;;;1.65;0.55;;;;;;;24.31;30.81;96792.50;5034445;28;20017;-36
2022/09/18 11:20:50;;;;;;;0.50;0.40;;;;;;;24.36;28.81;96801.31;5034787;28;20052;-36
2022/09/18 11:23:31;;;;;;;1.27;0.40;;;;;;;24.21;31.11;96798.81;5034707;28;20029;-36
2022/09/18 11:26:19;;;;;;;0.98;0.52;;;;;;;24.50;31.49;96800.97;5034260;28;20045;-35
2022/09/18 11:28:58;;;;;;;1.20;0.50;;;;;;;24.52;30.56;96806.75;5016738;28;20477;-35
2022/09/18 11:31:26;;;;;;;1.00;0.50;;;;;;;24.68;31.84;96800.41;5024337;28;20029;-36
2022/09/18 11:33:56;;;;;;;0.65;0.50;;;;;;;24.33;32.49;96803.81;5024638;28;20076;-36
2022/09/18 11:36:25;;;;;;;0.60;0.50;;;;;;;24.73;32.08;96796.06;5015068;28;20544;-37
2022/09/18 11:38:51;;;;;;;0.98;0.38;;;;;;;24.78;33.00;96797.31;5013229;28;20026;-36
2022/09/18 11:41:23;;;;;;;0.43;0.38;;;;;;;24.83;33.16;96805.63;5019647;28;20056;-35
2022/09/18 11:44:10;;;;;;;0.68;0.50;;;;;;;24.68;29.27;96794.84;5032246;28;20029;-36
2022/09/18 11:47:46;;;;;;;1.25;0.60;;;;;;;24.53;31.83;96799.19;5018564;28;20025;-36
2022/09/18 11:50:25;;;;;;;0.55;0.40;;;;;;;24.66;30.63;96796.63;4996708;28;20112;-36
2022/09/18 11:52:59;;;;;;;0.70;0.55;;;;;;;24.88;32.65;96799.28;5012082;28;20033;-36
2022/09/18 11:55:45;;;;;;;2.70;0.50;;;;;;;24.52;28.45;96792.91;5012136;28;20081;-36
2022/09/18 11:58:13;;;;;;;0.80;0.40;;;;;;;24.38;28.81;96796.75;5013541;28;20468;-37
2022/09/18 12:00:45;;;;;;;0.77;0.60;;;;;;;24.43;29.55;96792.44;5012770;28;20049;-36
2022/09/18 12:03:26;;;;;;;0.73;0.60;;;;;;;24.32;30.73;96791.22;5012402;28;20029;-36
2022/09/18 12:06:02;;;;;;;1.20;0.40;;;;;;;24.70;30.51;96794.34;5011928;28;20030;-36
2022/09/18 12:08:37;;;;;;;0.43;0.40;;;;;;;24.86;29.27;96784.41;5012361;28;20422;-36
2022/09/18 12:11:11;;;;;;;0.70;0.38;;;;;;;24.85;32.04;96780.16;4995400;28;20084;-36
2022/09/18 12:13:45;;;;;;;0.40;0.40;;;;;;;24.89;30.84;96783.38;5011718;28;20042;-37
2022/09/18 12:16:44;;;;;;;0.77;0.50;;;;;;;24.71;31.53;96779.22;5011798;28;20025;-36
2022/09/18 12:19:50;;;;;;;1.63;0.52;;;;;;;24.83;31.46;96777.13;5020873;28;20079;-36
2022/09/18 12:22:24;;;;;;;0.55;0.40;;;;;;;25.04;31.66;96775.50;5019921;28;20068;-37
2022/09/18 12:24:50;;;;;;;0.70;0.40;;;;;;;25.13;31.86;96771.66;5033408;28;20032;-35
2022/09/18 12:27:38;;;;;;;0.55;0.40;;;;;;;25.06;31.16;96767.44;5033045;28;20029;-36
2022/09/18 12:30:08;;;;;;;0.40;0.30;;;;;;;24.93;28.92;96765.25;5018943;28;20029;-35
2022/09/18 12:32:42;;;;;;;0.60;0.45;;;;;;;25.12;31.65;96767.38;5022881;28;20052;-36
2022/09/18 12:35:39;;;;;;;0.88;0.40;;;;;;;25.13;31.63;96771.66;5026851;28;20041;-36
2022/09/18 12:38:23;;;;;;;0.45;0.40;;;;;;;24.93;29.86;96765.25;5019628;28;20042;-36
2022/09/18 12:41:07;;;;;;;0.80;0.40;;;;;;;24.83;30.12;96757.72;5026682;28;20036;-36
2022/09/18 12:43:53;;;;;;;0.95;0.47;;;;;;;24.72;28.50;96761.31;5027761;28;20022;-36
2022/09/18 12:46:28;;;;;;;0.65;0.40;;;;;;;24.58;28.29;96759.63;5012582;28;20037;-36
2022/09/18 12:49:02;;;;;;;0.52;0.32;;;;;;;24.24;28.72;96770.06;5012182;28;20496;-37
2022/09/18 12:51:34;;;;;;;0.52;0.40;;;;;;;24.34;31.01;96763.00;5011763;28;20426;-36
2022/09/18 12:54:32;;;;;;;0.50;0.40;;;;;;;24.89;31.36;96761.19;5012635;28;20029;-36
2022/09/18 12:57:33;;;;;;;0.30;0.30;;;;;;;24.31;28.11;96767.53;5025219;28;20037;-35
2022/09/18 13:00:08;;;;;;;0.30;0.30;;;;;;;24.86;30.65;96760.19;5031302;28;20032;-35
2022/09/18 13:02:58;;;;;;;0.47;0.30;;;;;;;25.01;30.95;96760.63;5031831;28;20049;-36
2022/09/18 13:05:42;;;;;;;0.60;0.40;;;;;;;24.71;28.42;96757.03;5032123;28;20083;-37
2022/09/18 13:08:37;;;;;;;0.30;0.30;;;;;;;24.81;30.92;96758.22;5032055;28;20413;-36
2022/09/18 13:11:09;;;;;;;0.82;0.40;;;;;;;25.02;31.18;96762.16;5031905;28;20025;-37
2022/09/18 13:13:38;;;;;;;0.30;0.30;;;;;;;25.13;31.03;96752.97;5031723;28;20037;-36
2022/09/18 13:16:10;;;;;;;0.82;0.57;;;;;;;25.18;31.16;96752.19;5031892;28;20469;-36
2022/09/18 13:19:09;;;;;;;0.77;0.50;;;;;;;25.22;31.21;96757.47;5032133;28;20471;-37
2022/09/18 13:21:43;;;;;;;1.15;0.38;;;;;;;25.23;31.13;96753.41;5031009;28;20370;-36
2022/09/18 13:24:32;;;;;;;0.50;0.43;;;;;;;25.21;31.68;96748.41;5034753;28;20024;-37
2022/09/18 13:27:01;;;;;;;0.95;0.32;;;;;;;25.17;31.62;96750.69;5035536;28;20021;-36
2022/09/18 13:29:51;;;;;;;0.52;0.45;;;;;;;25.24;30.97;96750.13;5035641;28;20025;-36
2022/09/18 13:32:18;;;;;;;0.40;0.40;;;;;;;25.24;31.27;96744.56;5035519;28;20094;-36
2022/09/18 13:34:54;;;;;;;1.45;0.30;;;;;;;25.27;31.65;96749.09;5035582;28;20366;-37
2022/09/18 13:37:21;;;;;;;0.70;0.40;;;;;;;25.15;31.54;96758.78;5034895;28;20046;-36
2022/09/18 13:40:34;;;;;;;0.70;0.40;;;;;;;25.00;31.61;96753.56;5035313;28;20116;-36
2022/09/18 13:43:21;;;;;;;0.50;0.43;;;;;;;25.16;31.71;96751.22;5034094;28;20087;-36
2022/09/18 13:45:47;;;;;;;0.70;0.40;;;;;;;25.29;31.36;96738.22;5035018;28;20026;-36
2022/09/18 13:48:23;;;;;;;1.02;0.90;;;;;;;25.33;31.61;96735.94;5035228;28;20040;-36
2022/09/18 13:50:51;;;;;;;0.63;0.40;;;;;;;25.31;31.47;96732.91;5035004;28;20029;-35
2022/09/18 13:53:35;;;;;;;1.95;0.40;;;;;;;25.26;31.80;96730.19;5035136;28;20483;-36
2022/09/18 13:56:02;;;;;;;0.40;0.30;;;;;;;25.33;32.08;96730.38;5034993;28;20030;-36
2022/09/18 13:58:30;;;;;;;0.40;0.40;;;;;;;25.33;31.94;96730.38;5033424;28;20017;-36
2022/09/18 14:00:57;;;;;;;1.42;0.47;;;;;;;25.30;32.27;96730.66;5034694;28;20029;-36
2022/09/18 14:03:23;;;;;;;0.40;0.40;;;;;;;25.35;31.77;96727.81;5034996;28;20459;-36
2022/09/18 14:05:49;;;;;;;0.50;0.40;;;;;;;25.35;31.98;96730.59;5034683;28;20113;-36
2022/09/18 14:08:17;;;;;;;0.52;0.50;;;;;;;25.36;31.85;96723.78;5034787;28;20377;-37
2022/09/18 14:10:46;;;;;;;0.50;0.50;;;;;;;25.36;32.50;96723.78;5034720;28;20029;-38
2022/09/18 14:13:17;;;;;;;0.57;0.30;;;;;;;25.37;31.79;96730.09;5034659;28;20548;-36
2022/09/18 14:16:15;;;;;;;0.75;0.35;;;;;;;25.41;31.61;96727.78;5034694;28;20076;-36
2022/09/18 14:18:43;;;;;;;0.63;0.50;;;;;;;25.38;31.74;96721.22;5033797;28;20131;-37
2022/09/18 14:21:17;;;;;;;1.02;0.50;;;;;;;25.39;31.91;96722.75;5034540;28;20532;-36
2022/09/18 14:23:46;;;;;;;0.40;0.40;;;;;;;25.39;32.32;96722.75;5034479;28;20053;-36
2022/09/18 14:26:30;;;;;;;0.50;0.40;;;;;;;25.41;31.86;96731.31;5034384;28;20021;-36
2022/09/18 14:29:18;;;;;;;0.40;0.35;;;;;;;25.45;32.00;96727.50;5034254;28;20021;-36
2022/09/18 14:31:43;;;;;;;0.60;0.43;;;;;;;25.45;31.77;96727.50;5034661;28;20413;-36
2022/09/18 14:34:18;;;;;;;1.00;0.40;;;;;;;25.42;32.15;96724.50;5034206;28;20037;-37
2022/09/18 14:36:45;;;;;;;0.40;0.40;;;;;;;25.46;32.19;96729.00;5034071;28;20042;-36
2022/09/18 14:39:28;;;;;;;0.60;0.43;;;;;;;25.41;31.47;96731.31;5032680;28;20017;-36
2022/09/18 14:42:10;;;;;;;0.95;0.40;;;;;;;25.41;32.27;96731.31;5034091;28;20064;-36
2022/09/18 14:44:36;;;;;;;0.90;0.40;;;;;;;25.40;31.44;96727.03;5034399;28;20076;-36
2022/09/18 14:47:05;;;;;;;0.47;0.30;;;;;;;25.50;32.05;96735.00;5034395;28;20104;-36
2022/09/18 14:49:43;;;;;;;0.73;0.50;;;;;;;25.45;31.66;96730.28;5034162;28;20029;-36
2022/09/18 14:52:39;;;;;;;0.70;0.50;;;;;;;25.49;31.87;96725.94;5033940;28;20604;-36
2022/09/18 14:55:16;;;;;;;0.57;0.40;;;;;;;25.41;32.24;96720.22;5033986;28;20067;-36
2022/09/18 14:57:46;;;;;;;0.40;0.40;;;;;;;25.49;31.54;96719.63;5033967;28;20029;-35
2022/09/18 15:00:17;;;;;;;0.75;0.40;;;;;;;25.46;31.54;96729.75;5033058;28;20017;-36
2022/09/18 15:02:49;;;;;;;1.10;0.35;;;;;;;25.54;31.85;96724.38;5033630;28;20083;-37
2022/09/18 15:05:17;;;;;;;1.38;0.50;;;;;;;25.56;31.39;96725.38;5033761;28;20091;-35
2022/09/18 15:07:48;;;;;;;0.50;0.40;;;;;;;25.52;31.31;96718.59;5033794;28;20025;-37
2022/09/18 15:10:15;;;;;;;0.88;0.43;;;;;;;25.58;31.42;96719.31;5033823;28;20494;-36
2022/09/18 15:12:42;;;;;;;0.77;0.40;;;;;;;25.66;31.86;96723.03;5033360;28;20025;-36
2022/09/18 15:15:29;;;;;;;0.50;0.40;;;;;;;25.55;30.79;96717.56;5033290;28;20033;-37
2022/09/18 15:17:56;;;;;;;0.50;0.50;;;;;;;25.58;31.34;96717.28;5033204;28;20026;-37
2022/09/18 15:20:22;;;;;;;0.52;0.35;;;;;;;25.65;31.32;96722.28;5033149;28;20820;-38
2022/09/18 15:22:50;;;;;;;0.60;0.50;;;;;;;25.60;31.03;96725.81;5032973;28;20025;-36
2022/09/18 15:25:23;;;;;;;0.93;0.50;;;;;;;25.66;30.88;96704.34;5033152;28;20441;-36
2022/09/18 15:27:51;;;;;;;0.45;0.40;;;;;;;25.66;30.35;96704.34;5032975;28;20021;-36
2022/09/18 15:30:20;;;;;;;0.50;0.40;;;;;;;25.61;30.76;96712.72;5032967;28;20025;-36
2022/09/18 15:32:50;;;;;;;0.70;0.50;;;;;;;25.67;31.18;96707.88;5032551;28;20033;-36
2022/09/18 15:35:32;;;;;;;0.70;0.47;;;;;;;25.69;30.64;96703.31;5032978;28;20091;-38
2022/09/18 15:38:13;;;;;;;0.45;0.45;;;;;;;25.70;31.07;96701.28;5032919;28;20065;-36
2022/09/18 15:40:38;;;;;;;0.68;0.50;;;;;;;25.69;30.95;96697.75;5032788;28;20029;-37
2022/09/18 15:43:30;;;;;;;0.65;0.40;;;;;;;25.69;30.52;96697.00;5032660;28;20033;-37
2022/09/18 15:46:02;;;;;;;1.35;0.75;;;;;;;25.76;30.47;96690.84;5031974;28;20122;-37
2022/09/18 15:48:35;;;;;;;3.30;1.40;;;;;;;25.79;30.30;96697.41;5027969;28;20026;-36
2022/09/18 15:51:27;;;;;;;;;;;;;;;25.76;30.40;96688.06;5017222;28;20390;-36
2022/09/18 15:54:15;;;;;;;5.38;2.10;;;;;;;25.73;30.78;96689.88;5012312;28;19924;-37
2022/09/18 15:56:52;;;;;;;4.20;2.10;;;;;;;25.68;30.14;96681.59;5012244;28;20045;-36
2022/09/18 15:59:29;;;;;;;3.30;1.33;;;;;;;25.68;30.07;96692.72;5011255;28;20022;-36
2022/09/18 16:01:55;;;;;;;2.65;1.98;;;;;;;25.66;30.76;96676.56;5012728;28;20025;-36
2022/09/18 16:04:31;;;;;;;3.25;1.40;;;;;;;25.18;29.22;96682.06;5012631;28;20026;-37
2022/09/18 16:07:14;;;;;;;3.28;1.40;;;;;;;25.37;30.17;96686.41;5012617;28;20037;-36
2022/09/18 16:09:43;;;;;;;4.28;1.60;;;;;;;25.57;30.63;96676.13;5012634;28;20073;-36
2022/09/18 16:12:40;;;;;;;3.83;1.63;;;;;;;25.55;30.73;96679.44;5012518;28;20029;-37
2022/09/18 16:15:07;;;;;;;2.83;1.40;;;;;;;25.49;30.77;96677.97;5011983;28;20069;-36
2022/09/18 16:17:45;;;;;;;2.80;1.23;;;;;;;25.57;31.84;96681.69;5012484;28;20037;-37
2022/09/18 16:20:31;;;;;;;2.60;1.40;;;;;;;25.47;31.65;96686.81;5026192;28;20029;-38
2022/09/18 16:23:10;;;;;;;2.17;1.20;;;;;;;25.36;32.54;96673.81;5020746;28;20472;-36
2022/09/18 16:25:40;;;;;;;2.05;1.48;;;;;;;25.37;31.67;96672.53;5013732;28;20470;-37
2022/09/18 16:28:16;;;;;;;4.07;1.42;;;;;;;25.42;32.12;96677.28;5012467;28;20029;-36
2022/09/18 16:30:42;;;;;;;2.00;1.10;;;;;;;25.28;32.77;96683.97;5012405;28;20490;-36
2022/09/18 16:33:17;;;;;;;3.03;1.50;;;;;;;25.39;32.82;96677.56;5024002;28;20036;-36
2022/09/18 16:35:43;;;;;;;2.28;1.20;;;;;;;25.27;32.91;96684.50;5031111;28;20477;-36
2022/09/18 16:38:08;;;;;;;2.20;1.20;;;;;;;25.42;32.92;96680.06;5012250;28;20088;-37
2022/09/18 16:40:34;;;;;;;2.42;1.10;;;;;;;25.30;33.18;96687.00;5012747;28;20032;-36
2022/09/18 16:43:00;;;;;;;1.60;1.10;;;;;;;25.36;32.86;96678.59;5012239;28;20036;-37
2022/09/18 16:45:28;;;;;;;1.90;1.20;;;;;;;25.39;33.25;96683.88;5012345;28;20022;-36
2022/09/18 16:47:56;;;;;;;1.65;0.90;;;;;;;25.38;32.85;96679.59;5013985;28;20041;-36
2022/09/18 16:50:23;;;;;;;2.15;1.13;;;;;;;25.34;33.16;96684.69;5012177;28;20414;-37
2022/09/18 16:52:50;;;;;;;1.70;1.00;;;;;;;25.38;32.96;96682.38;5022217;28;20087;-36
2022/09/18 16:55:16;;;;;;;1.70;1.00;;;;;;;25.50;33.31;96685.03;5031819;28;20026;-36
2022/09/18 16:57:42;;;;;;;2.00;1.10;;;;;;;25.42;33.03;96685.63;5032404;28;20398;-36
2022/09/18 17:00:09;;;;;;;1.50;0.90;;;;;;;25.33;33.57;96690.75;5032299;28;20037;-36
2022/09/18 17:02:35;;;;;;;1.83;0.80;;;;;;;25.30;33.37;96689.78;5033428;28;20036;-37
2022/09/18 17:05:00;;;;;;;1.52;0.70;;;;;;;25.38;33.26;96687.91;5028851;28;20393;-36
2022/09/18 17:07:30;;;;;;;1.63;1.08;;;;;;;25.31;33.36;96690.53;5033886;28;20056;-37
2022/09/18 17:09:56;;;;;;;1.13;0.80;;;;;;;25.44;33.77;96696.22;5035390;28;20025;-37
2022/09/18 17:12:23;;;;;;;1.65;0.82;;;;;;;25.41;33.48;96691.69;5034984;28;20049;-36
2022/09/18 17:14:48;;;;;;;2.90;0.98;;;;;;;25.29;33.75;96685.50;5020560;28;20037;-37
2022/09/18 17:17:14;;;;;;;1.45;0.73;;;;;;;25.44;33.95;96687.13;5026021;28;20041;-36
2022/09/18 17:19:40;;;;;;;1.27;0.90;;;;;;;25.34;33.78;96687.47;5032175;28;20033;-36
2022/09/18 17:22:08;;;;;;;1.35;0.90;;;;;;;25.40;34.06;96679.06;5016022;28;20037;-36
2022/09/18 17:24:33;;;;;;;1.08;0.70;;;;;;;25.37;34.07;96689.19;5026687;28;20051;-36
2022/09/18 17:26:59;;;;;;;1.98;1.17;;;;;;;25.40;33.88;96696.50;5035124;28;20486;-37
2022/09/18 17:29:25;;;;;;;3.58;1.52;;;;;;;25.39;33.93;96689.44;5034956;28;20048;-36
2022/09/18 17:31:51;;;;;;;4.85;2.15;;;;;;;25.41;34.11;96675.03;5033456;28;20025;-36
2022/09/18 17:34:17;;;;;;;5.35;2.22;;;;;;;25.41;34.03;96684.13;5032284;28;20032;-36
2022/09/18 17:36:44;;;;;;;6.28;2.90;;;;;;;25.33;34.37;96691.53;5034685;28;20044;-36
2022/09/18 17:39:11;;;;;;;7.35;2.80;;;;;;;25.36;34.31;96689.69;5035062;28;20079;-36
2022/09/18 17:41:37;;;;;;;7.97;3.08;;;;;;;25.35;34.52;96688.94;5034951;28;20025;-36
2022/09/18 17:44:03;;;;;;;9.10;3.42;;;;;;;25.26;34.24;96691.31;5034143;28;20029;-36
2022/09/18 17:46:29;;;;;;;8.40;3.75;;;;;;;25.30;34.19;96695.31;5034965;28;20032;-36
2022/09/18 17:48:56;;;;;;;10.95;4.25;;;;;;;25.35;34.26;96697.28;5026921;28;20029;-37
2022/09/18 17:51:23;;;;;;;10.52;4.07;;;;;;;25.26;34.18;96697.63;5034436;28;20029;-37
2022/09/18 17:53:49;;;;;;;10.93;4.07;;;;;;;25.30;34.71;96700.13;5034786;28;20044;-36
2022/09/18 17:56:18;;;;;;;12.88;4.15;;;;;;;25.30;34.49;96700.13;5034914;28;20033;-36
2022/09/18 17:58:44;;;;;;;10.57;4.18;;;;;;;25.28;34.66;96706.19;5033557;28;20036;-37
2022/09/18 18:01:18;;;;;;;11.82;5.00;;;;;;;25.26;34.68;96708.72;5034943;28;20442;-36
2022/09/18 18:03:48;;;;;;;12.73;5.00;;;;;;;25.26;34.57;96694.09;5034774;28;20079;-36
2022/09/18 18:06:15;;;;;;;15.73;5.35;;;;;;;25.29;34.65;96707.69;5034677;28;20025;-36
2022/09/18 18:08:41;;;;;;;14.15;5.30;;;;;;;25.28;34.80;96706.19;5032883;28;20029;-36
2022/09/18 18:11:24;;;;;;;14.75;5.20;;;;;;;25.29;34.67;96713.25;5034770;28;20079;-36
2022/09/18 18:13:51;;;;;;;15.18;4.75;;;;;;;25.34;35.07;96720.78;5034675;28;20026;-37
2022/09/18 18:16:21;;;;;;;13.57;4.88;;;;;;;25.26;34.75;96719.81;5032976;28;20109;-36
2022/09/18 18:18:49;;;;;;;12.88;4.07;;;;;;;25.36;34.70;96721.00;5034603;28;20415;-36
2022/09/18 18:21:15;;;;;;;10.60;4.65;;;;;;;25.17;34.87;96724.97;5034402;28;20025;-36
2022/09/18 18:23:41;;;;;;;16.65;4.68;;;;;;;25.25;35.10;96725.88;5034412;28;20025;-36
2022/09/18 18:26:08;;;;;;;13.95;4.53;;;;;;;25.31;34.39;96726.63;5034581;28;20030;-36
2022/09/18 18:28:35;;;;;;;15.55;5.25;;;;;;;25.36;34.70;96729.31;5034591;28;20465;-37
2022/09/18 18:31:06;;;;;;;19.90;6.10;;;;;;;25.32;34.54;96728.88;5034178;28;20058;-36
2022/09/18 18:33:35;;;;;;;20.17;6.25;;;;;;;25.32;34.76;96731.66;5034328;28;20478;-36
2022/09/18 18:36:15;;;;;;;21.20;5.47;;;;;;;25.33;34.40;96730.38;5033840;28;20060;-36
2022/09/18 18:38:42;;;;;;;16.75;5.40;;;;;;;25.35;34.17;96733.38;5034210;28;20057;-36
2022/09/18 18:41:10;;;;;;;15.05;5.55;;;;;;;25.37;34.36;96730.84;5034031;28;20030;-36
2022/09/18 18:43:39;;;;;;;16.00;5.47;;;;;;;25.36;34.50;96734.88;5034113;28;20034;-36
2022/09/18 18:46:08;;;;;;;17.65;5.93;;;;;;;25.33;34.42;96735.19;5034065;28;20025;-36
2022/09/18 18:48:35;;;;;;;17.63;5.32;;;;;;;25.31;34.70;96737.72;5032887;28;20040;-36
2022/09/18 18:51:05;;;;;;;16.70;4.50;;;;;;;25.28;34.97;96742.28;5034094;28;20028;-36
2022/09/18 18:53:31;;;;;;;13.32;4.78;;;;;;;25.25;34.58;96751.63;5033677;28;20029;-37
2022/09/18 18:56:12;;;;;;;11.45;4.15;;;;;;;25.31;35.01;96744.03;5033750;28;20025;-36
2022/09/18 18:58:38;;;;;;;9.15;3.60;;;;;;;25.26;34.91;96739.25;5032373;28;20029;-38
2022/09/18 19:01:13;;;;;;;10.50;3.97;;;;;;;25.27;34.96;96746.31;5033624;28;20115;-37
2022/09/18 19:03:42;;;;;;;10.15;3.50;;;;;;;25.21;35.07;96742.84;5033593;28;20047;-36
2022/09/18 19:06:09;;;;;;;7.72;3.83;;;;;;;25.23;34.66;96756.19;5033088;28;20025;-36
2022/09/18 19:08:35;;;;;;;8.05;2.88;;;;;;;25.26;34.79;96753.13;5033648;28;20032;-36
2022/09/18 19:11:02;;;;;;;9.60;3.17;;;;;;;25.27;34.79;96756.66;5031995;28;20024;-36
2022/09/18 19:13:29;;;;;;;8.40;2.50;;;;;;;25.32;34.79;96755.88;5033525;28;20052;-36
2022/09/18 19:15:54;;;;;;;6.10;2.25;;;;;;;25.30;34.85;96756.41;5033566;28;20028;-36
2022/09/18 19:18:21;;;;;;;8.65;2.70;;;;;;;25.28;34.65;96764.47;5033447;28;20033;-36
2022/09/18 19:20:51;;;;;;;6.70;2.30;;;;;;;25.32;34.55;96762.19;5032594;28;20045;-36
2022/09/18 19:23:17;;;;;;;8.05;2.50;;;;;;;25.28;34.26;96767.25;5033284;28;20044;-37
2022/09/18 19:25:43;;;;;;;8.65;3.00;;;;;;;25.29;34.26;96768.78;5033415;28;20166;-36
2022/09/18 19:28:09;;;;;;;11.00;3.67;;;;;;;25.31;34.81;96771.03;5033514;28;20032;-38
2022/09/18 19:30:38;;;;;;;11.77;3.88;;;;;;;25.26;34.52;96777.38;5033152;28;20049;-36
2022/09/18 19:33:05;;;;;;;14.38;3.70;;;;;;;25.26;34.52;96775.34;5033460;28;20104;-36
2022/09/18 19:35:34;;;;;;;10.60;3.47;;;;;;;25.30;34.81;96778.59;5033044;28;20659;-35
2022/09/18 19:38:00;;;;;;;9.73;3.13;;;;;;;25.29;34.42;96785.44;5033078;28;20033;-36
2022/09/18 19:40:31;;;;;;;9.32;3.03;;;;;;;25.28;34.55;96783.16;5033148;28;20030;-36
2022/09/18 19:43:02;;;;;;;10.20;2.95;;;;;;;25.25;34.28;96781.41;5033150;28;20104;-36
2022/09/18 19:45:31;;;;;;;9.68;2.92;;;;;;;25.26;34.53;96775.34;5033224;28;20025;-37
2022/09/18 19:47:57;;;;;;;7.78;2.75;;;;;;;25.26;34.87;96771.81;5032884;28;20354;-36
2022/09/18 19:50:32;;;;;;;9.55;2.40;;;;;;;25.26;34.50;96778.13;5032844;28;20128;-36
2022/09/18 19:52:58;;;;;;;6.30;2.20;;;;;;;25.26;34.50;96782.91;5032944;28;20032;-36
2022/09/18 19:55:24;;;;;;;4.38;2.28;;;;;;;25.28;34.52;96780.38;5032830;28;20040;-36
2022/09/18 19:57:55;;;;;;;6.68;2.17;;;;;;;25.27;34.36;96782.41;5031603;28;20029;-37
2022/09/18 20:00:22;;;;;;;4.90;2.08;;;;;;;25.26;34.81;96778.13;5032613;28;20032;-36
2022/09/18 20:02:47;;;;;;;5.00;1.73;;;;;;;25.26;34.78;96780.91;5032556;28;20033;-36
2022/09/18 20:05:13;;;;;;;7.57;1.70;;;;;;;25.27;34.50;96776.84;5032603;28;20025;-36
2022/09/18 20:07:40;;;;;;;4.90;1.30;;;;;;;25.25;34.78;96778.63;5032695;28;20037;-36
2022/09/18 20:10:07;;;;;;;4.05;1.40;;;;;;;25.23;34.17;96778.41;5032848;28;20393;-36
2022/09/18 20:12:34;;;;;;;2.60;1.25;;;;;;;25.25;34.39;96779.38;5032608;28;20025;-37
2022/09/18 20:15:01;;;;;;;3.47;1.23;;;;;;;25.22;34.89;96779.69;5032730;28;20037;-37
2022/09/18 20:17:27;;;;;;;3.40;1.13;;;;;;;25.21;34.68;96776.16;5032406;28;20029;-36
2022/09/18 20:19:55;;;;;;;4.70;1.20;;;;;;;25.22;34.73;96774.84;5032693;28;20420;-37
2022/09/18 20:22:22;;;;;;;3.33;1.00;;;;;;;25.19;35.17;96775.91;5032224;28;20025;-36
2022/09/18 20:24:50;;;;;;;3.08;1.10;;;;;;;25.23;34.97;96770.06;5032303;28;20028;-36
2022/09/18 20:27:16;;;;;;;2.40;1.13;;;;;;;25.22;34.55;96774.84;5032315;28;20385;-36
2022/09/18 20:29:41;;;;;;;2.00;1.00;;;;;;;25.26;34.31;96780.91;5032271;28;20028;-37
2022/09/18 20:32:07;;;;;;;2.65;1.08;;;;;;;25.25;34.49;96768.28;5032087;28;20029;-36
2022/09/18 20:34:33;;;;;;;3.45;1.20;;;;;;;25.25;34.71;96781.41;5032103;28;20029;-37
2022/09/18 20:36:58;;;;;;;2.90;1.23;;;;;;;25.22;34.54;96776.91;5032112;28;20457;-37
2022/09/18 20:39:24;;;;;;;3.95;1.30;;;;;;;25.21;34.69;96767.81;5032219;28;20033;-36